Time;durP1;ratioP1;P1;durP2;ratioP2;P2;SDS_P1;SDS_P2;PMS_P1;PMS_P2;Temp;Humidity;BMP_temperature;BMP_pressure;BME280_temperature;BME280_humidity;BME280_pressure;Samples;Min_cycle;Max_cycle;Signal;HPM_P1;HPM_P2
2021/07/08 00:08:56;;;;;;;21.13;6.03;;;16.30;99.90;;;;;;20997348;28;20031;-77
2021/07/08 00:18:57;;;;;;;14.57;4.87;;;16.50;99.90;;;;;;20976193;28;20082;-77
2021/07/08 00:28:58;;;;;;;13.70;5.90;;;16.60;99.90;;;;;;20996216;28;20503;-77
2021/07/08 00:38:59;;;;;;;15.90;5.40;;;16.40;99.90;;;;;;21007805;28;20051;-76
2021/07/08 00:49:00;;;;;;;12.87;5.93;;;16.10;99.90;;;;;;21012091;28;20056;-77
2021/07/08 00:59:06;;;;;;;9.30;4.83;;;16.30;99.90;;;;;;21013204;28;20070;-77
2021/07/08 01:09:07;;;;;;;11.02;4.45;;;16.50;99.90;;;;;;21009364;28;20028;-77
2021/07/08 01:19:08;;;;;;;21.20;6.27;;;16.40;99.90;;;;;;21008143;28;20025;-77
2021/07/08 01:29:09;;;;;;;14.30;4.87;;;16.10;99.90;;;;;;21010990;28;20052;-77
2021/07/08 01:39:10;;;;;;;7.80;4.10;;;16.10;99.90;;;;;;21009392;28;20039;-77
2021/07/08 01:49:11;;;;;;;9.47;3.80;;;16.20;99.90;;;;;;21006865;28;20037;-77
2021/07/08 01:59:12;;;;;;;7.93;4.40;;;16.20;99.90;;;;;;21014977;28;20052;-77
2021/07/08 02:09:13;;;;;;;15.27;5.03;;;16.20;99.90;;;;;;21000166;28;20021;-77
2021/07/08 02:19:15;;;;;;;;;;;15.90;99.90;;;;;;21001499;28;20072;-77
2021/07/08 02:29:16;;;;;;;6.55;3.45;;;16.10;99.90;;;;;;20980570;28;19916;-77
2021/07/08 02:39:17;;;;;;;5.10;2.50;;;16.00;99.90;;;;;;20979187;28;20028;-76
2021/07/08 02:49:18;;;;;;;8.80;4.60;;;16.10;99.90;;;;;;20978396;28;20032;-76
2021/07/08 02:59:19;;;;;;;13.60;5.90;;;15.90;99.90;;;;;;20976941;28;20072;-76
2021/07/08 03:09:20;;;;;;;11.27;5.70;;;15.80;99.90;;;;;;20994775;28;20506;-77
2021/07/08 03:19:21;;;;;;;14.23;7.63;;;15.80;99.90;;;;;;20999228;28;20033;-77
2021/07/08 03:29:22;;;;;;;16.20;6.03;;;15.70;99.90;;;;;;20975197;28;20040;-77
2021/07/08 03:39:23;;;;;;;12.97;5.57;;;15.80;99.90;;;;;;20977020;28;20121;-76
2021/07/08 03:49:23;;;;;;;10.93;5.70;;;15.80;99.90;;;;;;20992856;28;20530;-77
2021/07/08 03:59:24;;;;;;;11.60;4.97;;;15.80;99.90;;;;;;20992345;28;20029;-77
2021/07/08 04:09:25;;;;;;;9.93;4.80;;;15.80;99.90;;;;;;20992603;28;20028;-77
2021/07/08 04:19:26;;;;;;;10.80;4.80;;;15.80;99.90;;;;;;20969412;28;20102;-76
2021/07/08 04:29:27;;;;;;;12.60;7.10;;;15.80;99.90;;;;;;20986225;28;20057;-77
2021/07/08 04:39:27;;;;;;;15.27;6.00;;;15.80;99.90;;;;;;20973454;28;20119;-76
2021/07/08 04:49:28;;;;;;;12.50;6.17;;;15.90;99.90;;;;;;20991942;28;20052;-77
2021/07/08 04:59:29;;;;;;;8.77;4.70;;;16.00;99.90;;;;;;20977371;28;20043;-77
2021/07/08 05:09:30;;;;;;;8.93;4.87;;;16.10;99.90;;;;;;20996972;28;20035;-77
2021/07/08 05:19:31;;;;;;;7.43;5.33;;;16.30;99.90;;;;;;20981303;28;20377;-77
2021/07/08 05:29:32;;;;;;;9.30;4.80;;;16.30;99.90;;;;;;21007865;28;20530;-77
2021/07/08 05:39:33;;;;;;;14.53;5.30;;;16.40;99.90;;;;;;21006784;28;20032;-77
2021/07/08 05:49:34;;;;;;;5.43;4.07;;;16.70;99.90;;;;;;21002248;28;20495;-77
2021/07/08 05:59:35;;;;;;;5.77;4.33;;;16.90;99.90;;;;;;21002714;28;20024;-77
2021/07/08 06:09:36;;;;;;;9.43;4.17;;;17.20;99.90;;;;;;21007539;28;20028;-77
2021/07/08 06:19:36;;;;;;;7.13;4.20;;;17.60;99.90;;;;;;20992799;28;20033;-77
2021/07/08 06:29:37;;;;;;;7.23;4.13;;;17.60;99.90;;;;;;21007589;28;20082;-77
2021/07/08 06:39:39;;;;;;;4.90;4.07;;;17.60;99.90;;;;;;21009159;28;20060;-77
2021/07/08 06:49:40;;;;;;;9.90;4.57;;;17.60;99.90;;;;;;21009379;22;20526;-77
2021/07/08 06:59:41;;;;;;;6.53;4.17;;;17.70;99.90;;;;;;20980943;28;20071;-77
2021/07/08 07:09:46;;;;;;;6.33;3.80;;;18.50;99.90;;;;;;21001280;28;20040;-77
2021/07/08 07:19:47;;;;;;;5.20;3.50;;;18.70;99.90;;;;;;21000083;28;20501;-77
2021/07/08 07:29:47;;;;;;;7.83;3.50;;;18.60;99.90;;;;;;20997308;28;20025;-77
2021/07/08 07:39:49;;;;;;;9.10;4.97;;;18.80;99.90;;;;;;20996365;28;20490;-77
2021/07/08 07:49:52;;;;;;;6.60;4.80;;;18.00;99.90;;;;;;20976772;28;20282;-77
2021/07/08 07:59:53;;;;;;;4.50;1.83;;;17.60;99.90;;;;;;20994691;28;20090;-76
2021/07/08 08:09:54;;;;;;;3.80;1.90;;;17.30;99.90;;;;;;20974534;28;20482;-78
2021/07/08 08:19:55;;;;;;;2.85;1.83;;;17.20;99.90;;;;;;20972365;28;20044;-77
2021/07/08 08:29:56;;;;;;;4.93;1.83;;;17.20;99.90;;;;;;20989436;28;20024;-77
2021/07/08 08:39:57;;;;;;;3.17;2.20;;;17.50;99.90;;;;;;20989835;28;20032;-77
2021/07/08 08:50:00;;;;;;;4.17;1.97;;;17.40;99.90;;;;;;20971472;28;20490;-78
2021/07/08 09:00:01;;;;;;;4.50;2.58;;;17.30;99.90;;;;;;21003755;28;20024;-78
2021/07/08 09:10:11;;;;;;;7.90;4.03;;;17.10;99.90;;;;;;20986429;28;20123;-78
2021/07/08 09:20:19;;;;;;;5.07;3.20;;;16.80;99.90;;;;;;20984571;28;20035;-78
2021/07/08 09:30:24;;;;;;;4.53;3.15;;;16.90;99.90;;;;;;20998905;28;20418;-77
2021/07/08 09:40:25;;;;;;;3.45;2.55;;;17.20;99.90;;;;;;20977557;28;20024;-77
2021/07/08 09:50:29;;;;;;;4.37;2.67;;;17.60;99.90;;;;;;20974994;28;20029;-77
2021/07/08 10:00:32;;;;;;;5.18;3.20;;;17.90;99.90;;;;;;20973816;28;20033;-77
2021/07/08 10:10:34;;;;;;;5.10;2.50;;;18.30;99.90;;;;;;20979755;28;20036;-77
2021/07/08 10:20:35;;;;;;;2.90;2.10;;;18.30;99.90;;;;;;20978053;28;20043;-79
2021/07/08 10:30:36;;;;;;;5.28;1.92;;;18.30;99.90;;;;;;20959405;28;20504;-77
2021/07/08 10:40:37;;;;;;;3.80;1.50;;;18.20;99.90;;;;;;20976935;28;20040;-77
2021/07/08 10:50:39;;;;;;;2.13;1.40;;;18.30;99.90;;;;;;20975620;28;20828;-77
2021/07/08 11:00:48;;;;;;;4.28;1.60;;;18.60;99.90;;;;;;20975756;28;20040;-77
2021/07/08 11:10:49;;;;;;;2.72;1.27;;;19.10;99.90;;;;;;20974613;28;20054;-77
2021/07/08 11:20:50;;;;;;;8.80;2.80;;;19.30;99.90;;;;;;20955783;28;20032;-76
2021/07/08 11:30:59;;;;;;;3.03;1.23;;;19.80;99.90;;;;;;20976130;28;20021;-75
2021/07/08 11:41:01;;;;;;;2.45;1.30;;;20.10;99.90;;;;;;20942014;28;20024;-75
2021/07/08 11:51:16;;;;;;;3.13;1.33;;;20.80;99.90;;;;;;20971061;28;20029;-75
2021/07/08 12:01:22;;;;;;;2.03;1.13;;;21.30;99.90;;;;;;20975072;28;20037;-75
2021/07/08 12:11:29;;;;;;;2.45;1.20;;;21.10;99.90;;;;;;20977207;28;20051;-76
2021/07/08 12:21:34;;;;;;;2.42;1.20;;;21.40;99.90;;;;;;20973327;28;20028;-76
2021/07/08 12:31:56;;;;;;;1.15;0.90;;;21.20;99.90;;;;;;20983576;28;20087;-75
2021/07/08 12:41:57;;;;;;;0.90;0.77;;;21.30;99.90;;;;;;20985245;28;20119;-76
2021/07/08 12:51:58;;;;;;;1.37;0.90;;;21.50;99.90;;;;;;20977219;28;20102;-75
2021/07/08 13:01:59;;;;;;;0.90;0.70;;;21.80;99.90;;;;;;20994586;28;20024;-75
2021/07/08 13:12:32;;;;;;;0.87;0.70;;;21.50;99.90;;;;;;20993284;28;20047;-75
2021/07/08 13:22:51;;;;;;;0.60;0.52;;;21.50;99.90;;;;;;20936066;28;20120;-76
2021/07/08 13:33:00;;;;;;;1.95;0.55;;;22.00;99.90;;;;;;20972263;28;20111;-75
2021/07/08 13:43:11;;;;;;;1.02;0.60;;;21.50;99.90;;;;;;20973739;28;20031;-74
2021/07/08 13:53:12;;;;;;;1.25;0.60;;;21.20;99.90;;;;;;20988570;28;20051;-75
2021/07/08 14:03:13;;;;;;;0.93;0.65;;;21.20;99.90;;;;;;20956158;28;20036;-76
2021/07/08 14:13:14;;;;;;;1.50;0.80;;;21.00;99.90;;;;;;20972589;28;20410;-74
2021/07/08 14:23:18;;;;;;;1.03;0.60;;;20.70;99.90;;;;;;20967542;28;20181;-75
2021/07/08 14:33:22;;;;;;;1.00;0.80;;;20.30;99.90;;;;;;20988342;28;20045;-73
2021/07/08 14:43:59;;;;;;;1.00;0.80;;;19.90;99.90;;;;;;20989997;28;20032;-74
2021/07/08 14:54:00;;;;;;;1.73;1.10;;;19.40;99.90;;;;;;20948579;28;20563;-74
2021/07/08 15:04:01;;;;;;;1.67;1.02;;;19.30;99.90;;;;;;20964913;28;20040;-75
2021/07/08 15:14:02;;;;;;;2.17;1.00;;;19.00;99.90;;;;;;20985414;28;20033;-74
2021/07/08 15:24:03;;;;;;;3.33;1.43;;;18.70;99.90;;;;;;20972118;28;20024;-75
2021/07/08 15:34:08;;;;;;;4.07;1.70;;;18.50;99.90;;;;;;20977782;28;20040;-76
2021/07/08 15:44:10;;;;;;;3.60;1.75;;;18.40;99.90;;;;;;20975513;28;20506;-75
2021/07/08 15:54:11;;;;;;;3.55;1.80;;;18.40;99.90;;;;;;20986536;28;20032;-74
2021/07/08 16:04:12;;;;;;;2.03;1.70;;;17.90;99.90;;;;;;20973892;28;20649;-76
2021/07/08 16:14:12;;;;;;;2.80;1.80;;;17.80;99.90;;;;;;20966866;28;20089;-76
2021/07/08 16:24:14;;;;;;;3.57;2.03;;;17.60;99.90;;;;;;20968595;28;20617;-75
2021/07/08 16:34:18;;;;;;;;;;;17.50;99.90;;;;;;20971462;28;20491;-74
2021/07/08 16:44:19;;;;;;;3.58;2.35;;;17.30;99.90;;;;;;20950647;28;20001;-75
2021/07/08 16:54:20;;;;;;;3.10;2.00;;;17.30;99.90;;;;;;20968907;28;20191;-75
2021/07/08 17:04:21;;;;;;;3.20;2.00;;;17.10;99.90;;;;;;20968232;28;20376;-76
2021/07/08 17:14:23;;;;;;;5.63;2.17;;;17.20;99.90;;;;;;20972046;28;20035;-76
2021/07/08 17:24:27;;;;;;;2.50;2.10;;;17.10;99.90;;;;;;20982531;28;20040;-74
2021/07/08 17:34:29;;;;;;;2.20;1.67;;;17.10;99.90;;;;;;20979896;28;20025;-76
2021/07/08 17:44:29;;;;;;;3.13;1.77;;;17.00;99.90;;;;;;20980588;28;20040;-76
2021/07/08 17:54:30;;;;;;;2.03;1.20;;;16.90;99.90;;;;;;20962444;28;20040;-75
2021/07/08 18:04:31;;;;;;;2.90;1.50;;;16.80;99.90;;;;;;20979657;28;20037;-76
2021/07/08 18:15:08;;;;;;;3.73;1.33;;;16.60;99.90;;;;;;20978289;28;20032;-76
2021/07/08 18:24:59;;;;;;;2.58;1.70;;;16.60;99.90;;;;;;20974072;28;20089;-75
2021/07/08 18:35:00;;;;;;;2.90;1.80;;;16.60;99.90;;;;;;20976704;28;20032;-76
2021/07/08 18:45:01;;;;;;;5.00;2.00;;;16.50;99.90;;;;;;20976420;28;20583;-76
2021/07/08 18:55:02;;;;;;;2.33;1.80;;;16.50;99.90;;;;;;20984552;28;20032;-76
2021/07/08 19:05:05;;;;;;;2.70;1.85;;;16.60;99.90;;;;;;20988863;28;20036;-76
2021/07/08 19:15:08;;;;;;;5.82;3.15;;;16.60;99.90;;;;;;20954730;28;20509;-75
2021/07/08 19:25:09;;;;;;;6.53;3.17;;;16.50;99.90;;;;;;20962994;28;20741;-75
2021/07/08 19:35:13;;;;;;;7.90;3.25;;;16.30;99.90;;;;;;20958632;28;20029;-76
2021/07/08 19:45:14;;;;;;;5.68;2.65;;;16.40;99.90;;;;;;20989386;28;20041;-75
2021/07/08 19:55:17;;;;;;;4.37;2.67;;;16.40;99.90;;;;;;20976963;28;20050;-75
2021/07/08 20:05:20;;;;;;;3.05;2.15;;;16.30;99.90;;;;;;20944867;28;20108;-75
2021/07/08 20:15:21;;;;;;;5.50;3.00;;;16.20;99.90;;;;;;20959569;28;20036;-76
2021/07/08 20:25:22;;;;;;;5.10;3.60;;;16.20;99.90;;;;;;20961018;28;20136;-75
2021/07/08 20:35:23;;;;;;;6.10;3.27;;;16.10;99.90;;;;;;20962432;28;20033;-74
2021/07/08 20:45:24;;;;;;;6.13;3.03;;;16.00;99.90;;;;;;20959352;28;20039;-77
2021/07/08 20:55:25;;;;;;;4.07;2.60;;;16.10;99.90;;;;;;20988896;28;20025;-75
2021/07/08 21:05:26;;;;;;;3.43;2.73;;;16.00;99.90;;;;;;20971255;28;20117;-76
2021/07/08 21:15:28;;;;;;;3.33;2.33;;;16.00;99.90;;;;;;20989045;28;20059;-75
2021/07/08 21:25:29;;;;;;;12.48;3.35;;;16.10;99.90;;;;;;20970611;28;20391;-74
2021/07/08 21:35:30;;;;;;;4.70;3.37;;;16.10;99.90;;;;;;20990239;28;20036;-74
2021/07/08 21:45:31;;;;;;;4.00;2.50;;;16.00;99.90;;;;;;20974841;28;20041;-75
2021/07/08 21:55:32;;;;;;;2.57;1.67;;;16.00;99.90;;;;;;20984300;28;20520;-74
2021/07/08 22:05:34;;;;;;;2.00;1.33;;;15.90;99.90;;;;;;20991587;28;20107;-76
2021/07/08 22:15:34;;;;;;;3.65;1.33;;;15.60;99.90;;;;;;20975348;28;20491;-76
2021/07/08 22:25:36;;;;;;;4.47;2.10;;;15.30;99.90;;;;;;20953782;28;20062;-76
2021/07/08 22:35:37;;;;;;;7.10;3.10;;;15.40;99.90;;;;;;20964896;28;20056;-76
2021/07/08 22:45:37;;;;;;;5.67;4.30;;;15.60;99.90;;;;;;20980655;28;20056;-76
2021/07/08 22:55:38;;;;;;;9.20;4.50;;;15.70;99.90;;;;;;20977416;28;20024;-76
2021/07/08 23:05:39;;;;;;;7.70;4.10;;;15.70;99.90;;;;;;20983009;22;20036;-79
2021/07/08 23:15:40;;;;;;;5.63;2.70;;;15.60;99.90;;;;;;20989049;28;20130;-80
2021/07/08 23:25:41;;;;;;;5.93;2.70;;;15.50;99.90;;;;;;20956999;28;20037;-79
2021/07/08 23:35:42;;;;;;;2.93;2.40;;;15.50;99.90;;;;;;20992343;28;20032;-79
